Time;durP1;ratioP1;P1;durP2;ratioP2;P2;SDS_P1;SDS_P2;PMS_P1;PMS_P2;Temp;Humidity;BMP_temperature;BMP_pressure;BME280_temperature;BME280_humidity;BME280_pressure;Samples;Min_cycle;Max_cycle;Signal;HPM_P1;HPM_P2
2020/12/26 00:01:13;;;;;;;11.15;8.23;;;;;;;2.23;100.00;102088.38;4952709;28;20043;-50
2020/12/26 00:03:40;;;;;;;9.65;6.53;;;;;;;2.28;100.00;102085.50;4953555;28;20237;-52
2020/12/26 00:06:07;;;;;;;8.85;6.03;;;;;;;2.29;100.00;102089.00;4949758;28;20051;-46
2020/12/26 00:08:35;;;;;;;10.98;7.13;;;;;;;2.34;100.00;102085.19;4951913;28;20320;-52
2020/12/26 00:11:03;;;;;;;9.60;6.35;;;;;;;2.31;100.00;102087.13;4951197;29;20427;-50
2020/12/26 00:13:30;;;;;;;8.13;5.47;;;;;;;2.33;100.00;102091.38;4949985;28;20046;-52
2020/12/26 00:15:57;;;;;;;8.45;5.38;;;;;;;2.40;100.00;102084.03;4952795;28;20140;-52
2020/12/26 00:18:23;;;;;;;9.60;7.47;;;;;;;2.36;100.00;102085.13;4951041;28;20439;-51
2020/12/26 00:20:50;;;;;;;12.15;6.47;;;;;;;2.39;100.00;102092.84;4951639;28;20066;-51
2020/12/26 00:23:17;;;;;;;9.63;5.72;;;;;;;2.39;100.00;102088.44;4946102;28;20054;-49
2020/12/26 00:25:44;;;;;;;10.60;6.10;;;;;;;2.37;100.00;102094.75;4941804;29;20043;-51
2020/12/26 00:28:12;;;;;;;10.18;5.72;;;;;;;2.19;100.00;102092.09;4951158;28;20118;-50
2020/12/26 00:30:39;;;;;;;8.90;6.15;;;;;;;2.20;100.00;102090.31;4951712;28;20498;-49
2020/12/26 00:33:06;;;;;;;9.52;5.57;;;;;;;2.34;100.00;102087.84;4952329;28;20058;-52
2020/12/26 00:35:33;;;;;;;10.48;5.88;;;;;;;2.33;100.00;102086.13;4951439;28;20323;-52
2020/12/26 00:38:01;;;;;;;8.10;5.82;;;;;;;2.33;100.00;102080.84;4949130;28;20051;-51
2020/12/26 00:40:28;;;;;;;11.13;4.93;;;;;;;2.41;100.00;102075.19;4952506;28;20043;-51
2020/12/26 00:42:54;;;;;;;9.85;5.82;;;;;;;2.50;100.00;102058.03;4949880;28;20043;-51
2020/12/26 00:45:22;;;;;;;9.07;4.93;;;;;;;2.54;100.00;102056.94;4948137;28;20054;-51
2020/12/26 00:47:50;;;;;;;15.35;5.28;;;;;;;2.47;100.00;102053.78;4950546;28;20097;-48
2020/12/26 00:50:17;;;;;;;8.85;5.32;;;;;;;2.47;100.00;102045.00;4953123;28;20050;-52
2020/12/26 00:52:44;;;;;;;11.38;6.60;;;;;;;2.34;100.00;102053.56;4953046;28;20051;-48
2020/12/26 00:55:11;;;;;;;8.27;5.00;;;;;;;2.38;100.00;102054.22;4949096;28;20377;-47
2020/12/26 00:57:41;;;;;;;8.02;5.45;;;;;;;2.35;100.00;102055.28;4950263;28;20051;-49
2020/12/26 01:00:09;;;;;;;9.80;5.50;;;;;;;2.34;100.00;102048.28;4952491;29;20043;-52
2020/12/26 01:02:37;;;;;;;8.52;5.70;;;;;;;2.31;100.00;102053.72;4950547;28;20380;-49
2020/12/26 01:05:04;;;;;;;10.18;6.35;;;;;;;2.29;100.00;102045.03;4950650;28;20051;-51
2020/12/26 01:07:32;;;;;;;11.68;6.30;;;;;;;2.29;100.00;102045.03;4950627;28;20142;-53
2020/12/26 01:09:59;;;;;;;12.38;5.75;;;;;;;2.30;100.00;102036.19;4951940;28;20047;-50
2020/12/26 01:12:26;;;;;;;14.63;6.47;;;;;;;2.24;100.00;102049.69;4952497;28;20052;-48
2020/12/26 01:14:53;;;;;;;11.65;6.00;;;;;;;2.26;100.00;102039.91;4949461;28;20428;-48
2020/12/26 01:17:19;;;;;;;11.55;6.63;;;;;;;2.23;100.00;102040.91;4950065;28;20130;-52
2020/12/26 01:19:58;;;;;;;11.68;5.32;;;;;;;2.21;100.00;102045.44;4950494;28;20364;-53
2020/12/26 01:22:25;;;;;;;12.30;5.78;;;;;;;2.15;100.00;102036.97;4952382;28;20051;-52
2020/12/26 01:24:52;;;;;;;11.73;6.13;;;;;;;2.02;100.00;102034.94;4950712;28;20062;-48
2020/12/26 01:27:20;;;;;;;11.57;6.00;;;;;;;2.01;100.00;102043.81;4950172;28;20337;-53
2020/12/26 01:29:47;;;;;;;11.15;5.97;;;;;;;2.06;100.00;102038.31;4950754;28;20051;-53
2020/12/26 01:32:14;;;;;;;8.85;5.15;;;;;;;1.99;100.00;102043.03;4956021;28;20043;-52
2020/12/26 01:34:41;;;;;;;9.68;4.75;;;;;;;2.06;100.00;102049.69;4956149;28;20051;-50
2020/12/26 01:37:08;;;;;;;9.48;5.22;;;;;;;1.94;100.00;102039.75;4952976;28;20332;-51
2020/12/26 01:39:36;;;;;;;10.77;4.85;;;;;;;2.02;100.00;102037.59;4956646;28;20039;-51
2020/12/26 01:42:03;;;;;;;8.77;4.70;;;;;;;1.94;100.00;102038.91;4953845;28;20427;-49
2020/12/26 01:44:29;;;;;;;9.07;5.50;;;;;;;1.87;100.00;102039.22;4955339;28;20102;-47
2020/12/26 01:46:57;;;;;;;9.77;5.43;;;;;;;1.79;100.00;102040.53;4949874;29;20339;-50
2020/12/26 01:49:24;;;;;;;6.72;4.53;;;;;;;1.86;100.00;102034.03;4955366;28;20119;-51
2020/12/26 01:51:51;;;;;;;7.68;4.72;;;;;;;1.83;100.00;102042.06;4955994;28;20054;-48
2020/12/26 01:54:18;;;;;;;10.95;5.93;;;;;;;1.82;100.00;102043.88;4956462;28;20457;-50
2020/12/26 01:56:46;;;;;;;12.23;5.38;;;;;;;1.76;100.00;102041.53;4953871;28;20047;-48
2020/12/26 01:59:14;;;;;;;10.27;4.45;;;;;;;1.71;100.00;102049.66;4952839;29;20122;-51
2020/12/26 02:01:42;;;;;;;11.52;5.03;;;;;;;1.71;100.00;102048.81;4955150;28;20119;-50
2020/12/26 02:04:10;;;;;;;8.18;4.50;;;;;;;1.84;100.00;102043.78;4954689;28;20047;-50
2020/12/26 02:06:39;;;;;;;18.50;4.90;;;;;;;1.70;100.00;102053.25;4952847;28;20054;-48
2020/12/26 02:09:06;;;;;;;10.07;4.05;;;;;;;1.67;100.00;102049.88;4952212;28;20052;-48
2020/12/26 02:11:34;;;;;;;8.95;4.65;;;;;;;1.71;100.00;102049.66;4954364;28;20315;-50
2020/12/26 02:14:01;;;;;;;8.80;4.60;;;;;;;1.65;100.00;102044.69;4955376;28;20047;-49
2020/12/26 02:16:28;;;;;;;6.47;4.25;;;;;;;1.50;100.00;102042.81;4954856;29;20039;-51
2020/12/26 02:18:55;;;;;;;13.48;4.15;;;;;;;1.62;100.00;102041.38;4952217;28;20080;-52
2020/12/26 02:21:22;;;;;;;9.45;4.35;;;;;;;1.63;100.00;102049.19;4953908;28;20074;-52
2020/12/26 02:23:50;;;;;;;10.65;4.28;;;;;;;1.46;100.00;102033.34;4954742;28;20043;-49
2020/12/26 02:26:27;;;;;;;11.55;5.13;;;;;;;1.53;100.00;102045.28;4951817;29;20051;-50
2020/12/26 02:28:54;;;;;;;9.02;4.32;;;;;;;1.54;100.00;102042.56;4947845;28;20039;-48
2020/12/26 02:31:21;;;;;;;10.85;3.97;;;;;;;1.51;100.00;102036.63;4954588;28;20058;-52
2020/12/26 02:33:49;;;;;;;7.57;3.72;;;;;;;1.55;100.00;102028.50;4954768;29;20138;-50
2020/12/26 02:36:16;;;;;;;12.50;4.13;;;;;;;1.48;100.00;102020.97;4952270;28;20051;-51
2020/12/26 02:38:43;;;;;;;7.35;3.45;;;;;;;1.49;100.00;102012.13;4954272;28;20050;-47
2020/12/26 02:41:11;;;;;;;9.07;4.13;;;;;;;1.46;100.00;102009.66;4951446;28;20157;-52
2020/12/26 02:43:38;;;;;;;8.77;3.25;;;;;;;1.51;100.00;102005.88;4951512;28;20423;-53
2020/12/26 02:46:05;;;;;;;9.52;3.60;;;;;;;1.33;100.00;102006.75;4949536;28;20047;-53
2020/12/26 02:48:34;;;;;;;9.82;3.97;;;;;;;1.33;100.00;102005.00;4953031;28;20435;-54
2020/12/26 02:51:01;;;;;;;8.20;3.45;;;;;;;1.24;100.00;101996.69;4953765;28;20050;-51
2020/12/26 02:53:28;;;;;;;7.93;3.75;;;;;;;1.24;100.00;102004.59;4953265;29;20118;-50
2020/12/26 02:55:55;;;;;;;5.55;3.13;;;;;;;1.16;100.00;101999.69;4952150;28;20316;-51
2020/12/26 02:58:22;;;;;;;11.15;3.33;;;;;;;1.09;100.00;101993.00;4950245;28;20215;-51
2020/12/26 03:00:50;;;;;;;7.97;2.83;;;;;;;1.13;100.00;101984.88;4953285;28;20074;-51
2020/12/26 03:03:17;;;;;;;9.90;3.20;;;;;;;1.12;100.00;101980.56;4953902;28;20054;-46
2020/12/26 03:05:44;;;;;;;9.82;3.35;;;;;;;1.16;100.00;101978.63;4951569;28;20408;-52
2020/12/26 03:08:10;;;;;;;8.52;4.82;;;;;;;1.28;100.00;101956.97;4947925;28;20443;-51
2020/12/26 03:10:37;;;;;;;5.60;3.50;;;;;;;1.24;100.00;101965.94;4948686;29;20416;-49
2020/12/26 03:13:04;;;;;;;8.98;3.50;;;;;;;1.24;100.00;101960.69;4952745;28;20047;-51
2020/12/26 03:15:32;;;;;;;5.05;3.63;;;;;;;1.14;100.00;101959.44;4952896;28;20058;-52
2020/12/26 03:17:59;;;;;;;8.23;3.40;;;;;;;1.16;100.00;101953.19;4950493;28;20383;-48
2020/12/26 03:20:26;;;;;;;6.18;3.50;;;;;;;1.24;100.00;101950.16;4953796;29;20070;-51
2020/12/26 03:22:53;;;;;;;7.50;3.50;;;;;;;1.23;100.00;101943.19;4950953;28;20443;-51
2020/12/26 03:25:21;;;;;;;7.03;3.65;;;;;;;1.19;100.00;101947.75;4952214;28;20055;-52
2020/12/26 03:27:50;;;;;;;5.00;3.13;;;;;;;1.09;100.00;101937.75;4952575;28;20067;-53
2020/12/26 03:30:17;;;;;;;6.43;3.08;;;;;;;1.16;100.00;101944.41;4949523;28;20067;-54
2020/12/26 03:32:44;;;;;;;6.57;3.28;;;;;;;1.19;100.00;101942.50;4954006;29;20081;-51
2020/12/26 03:35:13;;;;;;;4.72;2.55;;;;;;;1.09;100.00;101935.13;4952190;28;20043;-53
2020/12/26 03:37:39;;;;;;;8.30;3.67;;;;;;;1.08;100.00;101917.63;4948997;28;20043;-54
2020/12/26 03:40:08;;;;;;;6.28;3.28;;;;;;;1.13;100.00;101918.25;4951726;28;20399;-53
2020/12/26 03:42:35;;;;;;;8.55;4.53;;;;;;;1.09;99.98;101932.47;4951538;28;20070;-54
2020/12/26 03:45:03;;;;;;;6.35;2.78;;;;;;;1.03;99.89;101920.47;4951333;28;20063;-51
2020/12/26 03:47:30;;;;;;;10.30;3.50;;;;;;;1.00;100.00;101920.63;4952683;28;20054;-53
2020/12/26 03:49:58;;;;;;;8.15;3.92;;;;;;;0.98;100.00;101909.34;4951551;29;20070;-52
2020/12/26 03:52:25;;;;;;;6.35;3.70;;;;;;;0.93;100.00;101908.69;4952426;28;20047;-49
2020/12/26 03:54:52;;;;;;;7.35;3.95;;;;;;;0.94;100.00;101911.25;4952100;28;20051;-53
2020/12/26 03:57:19;;;;;;;11.23;3.30;;;;;;;0.94;99.97;101895.47;4949071;28;20047;-53
2020/12/26 03:59:45;;;;;;;8.65;3.10;;;;;;;0.95;99.94;101885.78;4950272;28;20043;-48
2020/12/26 04:02:13;;;;;;;9.52;3.10;;;;;;;0.75;99.67;101884.13;4943089;28;20051;-51
2020/12/26 04:04:40;;;;;;;5.82;2.70;;;;;;;0.76;100.00;101883.22;4953199;28;20043;-51
2020/12/26 04:07:07;;;;;;;9.40;4.15;;;;;;;0.72;100.00;101895.63;4949036;28;20141;-48
2020/12/26 04:09:37;;;;;;;7.82;3.13;;;;;;;0.73;100.00;101896.50;4952365;28;20051;-52
2020/12/26 04:12:04;;;;;;;5.75;3.65;;;;;;;0.72;100.00;101897.44;4949777;29;20043;-53
2020/12/26 04:14:33;;;;;;;5.10;2.80;;;;;;;0.67;100.00;101887.97;4951612;28;20051;-49
2020/12/26 04:17:02;;;;;;;10.32;3.55;;;;;;;0.68;100.00;101896.72;4951226;28;20081;-52
2020/12/26 04:19:30;;;;;;;7.47;3.33;;;;;;;0.61;100.00;101893.53;4952228;28;20051;-52
2020/12/26 04:21:57;;;;;;;8.07;3.22;;;;;;;0.74;100.00;101892.94;4952260;28;20353;-52
2020/12/26 04:24:25;;;;;;;12.27;3.97;;;;;;;0.59;100.00;101884.84;4951595;28;20051;-53
2020/12/26 04:26:55;;;;;;;12.68;3.95;;;;;;;0.51;100.00;101886.97;4950711;29;20063;-53
2020/12/26 04:29:22;;;;;;;6.18;3.80;;;;;;;0.43;100.00;101878.63;4949611;28;20047;-49
2020/12/26 04:31:51;;;;;;;6.07;2.97;;;;;;;0.47;100.00;101877.56;4952288;28;20277;-50
2020/12/26 04:34:18;;;;;;;6.88;3.38;;;;;;;0.41;100.00;101872.56;4952160;28;20435;-52
2020/12/26 04:36:45;;;;;;;5.78;3.50;;;;;;;0.49;100.00;101870.44;4951382;28;20058;-50
2020/12/26 04:39:13;;;;;;;6.95;3.47;;;;;;;0.46;100.00;101878.47;4947947;28;20458;-48
2020/12/26 04:41:41;;;;;;;9.02;4.03;;;;;;;0.40;100.00;101877.00;4951479;28;20435;-47
2020/12/26 04:44:10;;;;;;;11.13;3.45;;;;;;;0.31;100.00;101877.41;4950494;28;20336;-49
2020/12/26 04:46:39;;;;;;;7.68;2.95;;;;;;;0.40;100.00;101881.38;4949898;29;20129;-51
2020/12/26 04:49:09;;;;;;;14.88;4.35;;;;;;;0.43;100.00;101881.25;4950796;28;20059;-52
2020/12/26 04:51:40;;;;;;;8.02;4.07;;;;;;;0.41;100.00;101883.09;4950422;28;20050;-53
2020/12/26 04:54:24;;;;;;;6.00;3.28;;;;;;;0.48;100.00;101871.34;4951715;28;20091;-51
2020/12/26 04:56:53;;;;;;;5.90;3.45;;;;;;;0.39;100.00;101871.81;4950587;28;20070;-52
2020/12/26 04:59:21;;;;;;;5.82;2.95;;;;;;;0.53;100.00;101873.81;4948710;28;20039;-53
2020/12/26 05:01:48;;;;;;;7.22;3.30;;;;;;;0.36;100.00;101862.28;4949686;28;20039;-53
2020/12/26 05:04:15;;;;;;;8.70;3.60;;;;;;;0.37;100.00;101848.22;4952137;28;20043;-51
2020/12/26 05:06:46;;;;;;;24.05;5.05;;;;;;;0.31;100.00;101845.88;4951038;28;20051;-50
2020/12/26 05:09:15;;;;;;;6.53;3.25;;;;;;;0.42;100.00;101869.03;4953524;28;20142;-53
2020/12/26 05:11:54;;;;;;;6.10;3.65;;;;;;;0.41;99.69;101875.19;4954755;28;20051;-50
2020/12/26 05:14:21;;;;;;;5.70;2.90;;;;;;;0.33;99.91;101868.53;4954533;28;20054;-49
2020/12/26 05:16:50;;;;;;;8.07;3.15;;;;;;;0.35;100.00;101860.56;4956070;28;20085;-51
2020/12/26 05:19:17;;;;;;;9.82;3.63;;;;;;;0.26;100.00;101866.28;4954198;28;20331;-54
2020/12/26 05:21:46;;;;;;;11.82;3.72;;;;;;;0.24;100.00;101868.97;4953772;28;20118;-49
2020/12/26 05:24:14;;;;;;;6.53;3.10;;;;;;;0.23;100.00;101869.88;4954117;28;20323;-51
2020/12/26 05:26:43;;;;;;;9.43;3.83;;;;;;;0.12;100.00;101859.00;4954900;28;20380;-52
2020/12/26 05:29:11;;;;;;;6.47;4.00;;;;;;;0.31;100.00;101851.13;4954376;29;20055;-52
2020/12/26 05:31:53;;;;;;;9.15;3.45;;;;;;;0.18;100.00;101853.47;4952885;28;20400;-52
2020/12/26 05:34:20;;;;;;;5.78;2.78;;;;;;;0.05;100.00;101854.97;4956130;29;20035;-53
2020/12/26 05:36:47;;;;;;;5.18;3.00;;;;;;;-0.06;100.00;101850.19;4955374;29;20039;-51
2020/12/26 05:39:15;;;;;;;9.55;3.25;;;;;;;-0.06;100.00;101839.69;4951016;28;20047;-48
2020/12/26 05:41:43;;;;;;;11.43;3.00;;;;;;;0.05;100.00;101836.56;4954597;29;20051;-50
2020/12/26 05:44:12;;;;;;;10.88;3.28;;;;;;;-0.06;100.00;101839.69;4957017;28;20051;-52
2020/12/26 05:46:52;;;;;;;6.75;2.78;;;;;;;-0.22;100.00;101839.53;4952872;28;20054;-49
2020/12/26 05:49:27;;;;;;;10.85;2.97;;;;;;;-0.16;100.00;101844.47;4950431;28;20062;-48
2020/12/26 05:51:57;;;;;;;13.73;2.95;;;;;;;-0.06;100.00;101851.06;4954676;28;20363;-51
2020/12/26 05:54:27;;;;;;;8.18;4.13;;;;;;;-0.04;100.00;101857.06;4954108;28;20427;-52
2020/12/26 05:57:05;;;;;;;8.50;3.17;;;;;;;0.03;100.00;101856.78;4952379;29;20412;-49
2020/12/26 05:59:33;;;;;;;6.20;3.20;;;;;;;0.12;100.00;101869.53;4952002;29;20150;-50
2020/12/26 06:02:24;;;;;;;4.47;2.58;;;;;;;0.15;100.00;101859.72;4954093;29;20069;-50
2020/12/26 06:04:59;;;;;;;4.72;2.75;;;;;;;0.13;100.00;101851.06;4953645;28;20055;-47
2020/12/26 06:07:29;;;;;;;5.68;2.50;;;;;;;0.14;100.00;101841.38;4951545;28;20344;-51
2020/12/26 06:09:57;;;;;;;5.93;2.60;;;;;;;0.25;100.00;101841.75;4951713;28;20356;-47
2020/12/26 06:12:25;;;;;;;7.18;2.55;;;;;;;0.28;99.77;101846.00;4953895;28;20051;-52
2020/12/26 06:14:53;;;;;;;8.98;2.95;;;;;;;0.15;99.81;101832.59;4952109;28;20042;-47
2020/12/26 06:17:22;;;;;;;3.53;2.20;;;;;;;0.14;99.75;101836.13;4952459;28;20267;-49
2020/12/26 06:19:55;;;;;;;6.28;2.95;;;;;;;0.04;99.57;101829.59;4952145;28;20170;-47
2020/12/26 06:22:22;;;;;;;5.03;2.40;;;;;;;0.08;99.73;101837.28;4953983;29;20047;-49
2020/12/26 06:24:53;;;;;;;4.68;2.90;;;;;;;0.06;100.00;101835.63;4952973;29;20047;-50
2020/12/26 06:27:24;;;;;;;4.90;3.22;;;;;;;-0.05;100.00;101833.50;4947182;28;20077;-51
2020/12/26 06:29:51;;;;;;;5.68;2.78;;;;;;;0.05;99.84;101839.19;4952347;29;20043;-51
2020/12/26 06:32:19;;;;;;;6.70;2.90;;;;;;;-0.12;100.00;101838.19;4953845;29;20039;-49
2020/12/26 06:34:46;;;;;;;8.02;3.30;;;;;;;-0.12;100.00;101851.31;4953762;28;20047;-51
2020/12/26 06:37:13;;;;;;;8.43;4.00;;;;;;;-0.06;100.00;101851.06;4950208;28;20043;-49
2020/12/26 06:39:40;;;;;;;5.75;3.58;;;;;;;-0.06;100.00;101861.56;4952479;28;20047;-51
2020/12/26 06:42:15;;;;;;;8.23;3.25;;;;;;;-0.14;100.00;101850.53;4953142;28;20332;-52
2020/12/26 06:44:43;;;;;;;5.15;3.28;;;;;;;-0.23;100.00;101861.44;4950938;28;20054;-50
2020/12/26 06:47:35;;;;;;;6.10;3.25;;;;;;;-0.30;100.00;101858.22;4951983;28;20043;-52
2020/12/26 06:50:20;;;;;;;5.65;2.80;;;;;;;-0.32;100.00;101846.94;4952800;29;20039;-49
2020/12/26 06:52:47;;;;;;;7.32;3.67;;;;;;;-0.41;100.00;101844.72;4951690;28;20039;-49
2020/12/26 06:55:36;;;;;;;10.10;4.07;;;;;;;-0.38;100.00;101834.09;4952181;28;20055;-48
2020/12/26 06:58:03;;;;;;;5.43;3.92;;;;;;;-0.45;100.00;101844.00;4949737;28;20352;-51
2020/12/26 07:00:30;;;;;;;11.95;4.40;;;;;;;-0.26;100.00;101828.28;4953823;28;20043;-50
2020/12/26 07:03:23;;;;;;;8.23;3.88;;;;;;;-0.31;100.00;101829.41;4953368;28;20432;-52
2020/12/26 07:05:51;;;;;;;6.25;3.63;;;;;;;-0.47;100.00;101840.56;4952806;28;20039;-47
2020/12/26 07:08:29;;;;;;;7.80;3.90;;;;;;;-0.36;100.00;101842.75;4950944;28;20456;-51
2020/12/26 07:10:57;;;;;;;6.72;3.65;;;;;;;-0.26;100.00;101845.81;4951769;29;20423;-54
2020/12/26 07:13:47;;;;;;;8.57;4.00;;;;;;;-0.16;100.00;101843.66;4954129;29;20055;-54
2020/12/26 07:16:36;;;;;;;10.07;3.95;;;;;;;-0.21;100.00;101835.97;4951934;28;20507;-51
2020/12/26 07:19:26;;;;;;;8.35;4.43;;;;;;;-0.35;100.00;101836.59;4949717;28;20053;-50
2020/12/26 07:21:54;;;;;;;7.15;3.70;;;;;;;-0.21;100.00;101831.56;4953214;28;20462;-51
2020/12/26 07:24:23;;;;;;;6.95;3.85;;;;;;;-0.03;100.00;101829.91;4952997;29;20043;-50
2020/12/26 07:26:50;;;;;;;10.02;3.90;;;;;;;-0.14;100.00;101836.53;4950723;29;20074;-53
2020/12/26 07:29:25;;;;;;;7.80;3.95;;;;;;;-0.12;100.00;101835.56;4950563;29;20443;-51
2020/12/26 07:31:54;;;;;;;9.93;4.05;;;;;;;-0.16;100.00;101833.97;4950262;28;20039;-49
2020/12/26 07:34:37;;;;;;;7.15;3.72;;;;;;;-0.16;100.00;101823.47;4954148;28;20046;-49
2020/12/26 07:37:05;;;;;;;9.57;4.15;;;;;;;-0.29;100.00;101817.94;4950028;28;20047;-52
2020/12/26 07:39:32;;;;;;;9.32;3.85;;;;;;;-0.32;100.00;101817.22;4946430;28;20043;-50
2020/12/26 07:41:59;;;;;;;9.10;4.10;;;;;;;-0.38;100.00;101811.31;4952180;28;20045;-51
2020/12/26 07:44:28;;;;;;;7.97;3.67;;;;;;;-0.16;100.00;101817.38;4952607;28;20072;-53
2020/12/26 07:46:56;;;;;;;6.90;3.35;;;;;;;-0.01;100.00;101817.53;4952721;28;20372;-51
2020/12/26 07:49:23;;;;;;;8.13;3.65;;;;;;;0.08;100.00;101818.03;4949845;28;20058;-52
2020/12/26 07:52:02;;;;;;;7.80;3.97;;;;;;;0.22;100.00;101813.00;4952743;28;20039;-51
2020/12/26 07:54:29;;;;;;;12.52;4.55;;;;;;;0.36;100.00;101809.72;4952016;28;20347;-54
2020/12/26 07:56:56;;;;;;;9.88;3.90;;;;;;;0.43;100.00;101815.56;4950591;28;20054;-51
2020/12/26 07:59:23;;;;;;;10.68;4.07;;;;;;;0.60;100.00;101820.84;4948913;28;20055;-52
2020/12/26 08:01:51;;;;;;;15.93;5.47;;;;;;;0.74;100.00;101827.19;4951960;28;20054;-52
2020/12/26 08:04:18;;;;;;;14.35;4.53;;;;;;;0.66;100.00;101822.31;4951848;28;20152;-52
2020/12/26 08:06:46;;;;;;;12.98;4.43;;;;;;;0.75;100.00;101821.03;4952033;28;20047;-51
2020/12/26 08:09:16;;;;;;;12.95;5.03;;;;;;;0.70;99.98;101817.78;4945402;28;20065;-48
2020/12/26 08:11:45;;;;;;;14.05;4.93;;;;;;;0.79;100.00;101817.31;4950915;28;20134;-50
2020/12/26 08:14:13;;;;;;;17.17;5.88;;;;;;;0.91;99.45;101824.59;4949777;29;20070;-52
2020/12/26 08:16:41;;;;;;;10.90;5.57;;;;;;;0.87;99.64;101815.16;4951668;28;20058;-48
2020/12/26 08:19:07;;;;;;;16.30;5.97;;;;;;;0.97;99.49;101805.03;4944463;28;20047;-48
2020/12/26 08:21:34;;;;;;;12.68;4.95;;;;;;;0.97;99.27;101811.16;4951468;28;20047;-48
2020/12/26 08:24:04;;;;;;;13.73;5.18;;;;;;;0.97;99.22;101813.78;4951750;28;20325;-49
2020/12/26 08:26:33;;;;;;;16.23;5.65;;;;;;;1.08;99.38;101810.63;4946185;28;20051;-52
2020/12/26 08:29:05;;;;;;;10.30;4.28;;;;;;;1.03;99.40;101809.97;4942636;28;20043;-53
2020/12/26 08:31:33;;;;;;;11.60;5.28;;;;;;;1.07;99.30;101818.59;4950230;28;20427;-49
2020/12/26 08:34:02;;;;;;;11.70;5.55;;;;;;;1.11;98.91;101807.00;4949575;29;20447;-52
2020/12/26 08:36:33;;;;;;;19.08;5.80;;;;;;;1.26;98.63;101803.56;4951461;28;20047;-50
2020/12/26 08:39:02;;;;;;;7.35;4.07;;;;;;;1.15;98.77;101798.84;4944659;28;20066;-52
2020/12/26 08:41:31;;;;;;;9.90;4.60;;;;;;;1.19;98.41;101794.25;4948499;28;20039;-52
2020/12/26 08:43:58;;;;;;;10.63;4.80;;;;;;;1.02;98.67;101798.63;4952947;29;20055;-49
2020/12/26 08:46:26;;;;;;;9.45;4.72;;;;;;;1.18;98.54;101788.16;4954237;28;20051;-50
2020/12/26 08:48:55;;;;;;;7.50;4.10;;;;;;;1.21;98.14;101787.16;4951587;28;20432;-49
2020/12/26 08:51:23;;;;;;;14.93;5.13;;;;;;;1.37;97.81;101782.78;4953774;28;20054;-48
2020/12/26 08:53:52;;;;;;;10.38;4.97;;;;;;;1.64;97.33;101779.63;4945333;28;20115;-50
2020/12/26 08:56:32;;;;;;;11.68;4.68;;;;;;;1.82;97.02;101769.06;4953258;29;20047;-48
2020/12/26 08:58:59;;;;;;;8.95;4.47;;;;;;;1.97;95.73;101751.56;4947646;28;20058;-53
2020/12/26 09:01:26;;;;;;;12.73;5.03;;;;;;;1.94;96.22;101767.53;4955008;29;20360;-51
2020/12/26 09:03:56;;;;;;;11.73;5.35;;;;;;;2.19;95.26;101759.16;4955133;28;20051;-48
2020/12/26 09:06:30;;;;;;;13.48;5.22;;;;;;;2.05;94.80;101762.53;4955262;28;20047;-50
2020/12/26 09:08:57;;;;;;;9.03;4.43;;;;;;;2.24;94.58;101759.75;4950749;28;20051;-47
2020/12/26 09:11:30;;;;;;;10.75;5.97;;;;;;;2.20;94.01;101752.94;4952994;29;20047;-51
2020/12/26 09:13:58;;;;;;;12.57;4.82;;;;;;;2.02;94.08;101753.00;4953428;28;20054;-49
2020/12/26 09:16:28;;;;;;;9.60;4.47;;;;;;;2.10;94.22;101733.28;4953745;28;20057;-47
2020/12/26 09:19:00;;;;;;;12.35;5.25;;;;;;;2.13;94.44;101738.41;4949405;28;20054;-50
2020/12/26 09:21:28;;;;;;;12.32;5.60;;;;;;;2.01;94.20;101740.78;4953834;29;20070;-52
2020/12/26 09:23:56;;;;;;;11.93;4.90;;;;;;;2.08;94.81;101730.75;4954710;29;20447;-47
2020/12/26 09:26:25;;;;;;;12.90;4.95;;;;;;;2.26;94.38;101735.94;4953353;29;20063;-49
2020/12/26 09:28:54;;;;;;;9.48;3.95;;;;;;;2.32;94.03;101733.78;4947388;29;20044;-52
2020/12/26 09:31:23;;;;;;;13.77;5.47;;;;;;;2.35;94.01;101728.34;4952732;28;20045;-49
2020/12/26 09:33:50;;;;;;;12.25;5.20;;;;;;;2.56;93.65;101725.41;4954683;29;20054;-53
2020/12/26 09:36:19;;;;;;;13.02;5.15;;;;;;;2.37;93.66;101730.91;4952149;28;20063;-52
2020/12/26 09:38:47;;;;;;;18.85;4.90;;;;;;;2.51;93.61;101738.00;4951091;28;20051;-51
2020/12/26 09:41:19;;;;;;;11.30;4.40;;;;;;;2.39;92.34;101729.00;4952311;28;20070;-49
2020/12/26 09:43:47;;;;;;;7.90;4.22;;;;;;;2.47;92.46;101731.22;4954320;29;20065;-51
2020/12/26 09:46:14;;;;;;;10.18;4.40;;;;;;;2.56;92.31;101722.78;4952277;28;20047;-50
2020/12/26 09:48:44;;;;;;;7.28;4.65;;;;;;;2.56;92.26;101720.97;4949056;28;20075;-54
2020/12/26 09:51:14;;;;;;;13.07;4.07;;;;;;;2.70;92.33;101717.53;4950690;29;20046;-51
2020/12/26 09:53:41;;;;;;;8.68;4.07;;;;;;;2.77;92.02;101711.91;4950617;28;20050;-54
2020/12/26 09:56:09;;;;;;;9.48;4.05;;;;;;;2.79;92.90;101710.03;4949111;29;20590;-54
2020/12/26 09:58:37;;;;;;;8.98;4.28;;;;;;;2.86;91.47;101714.00;4947496;28;20054;-50
2020/12/26 10:01:04;;;;;;;9.25;4.00;;;;;;;3.03;91.72;101705.91;4948047;29;20039;-54
2020/12/26 10:03:31;;;;;;;13.48;3.83;;;;;;;2.91;91.45;101699.59;4950743;29;20047;-50
2020/12/26 10:05:58;;;;;;;7.57;3.65;;;;;;;2.79;91.87;101699.47;4952557;28;20051;-54
2020/12/26 10:08:28;;;;;;;11.23;4.35;;;;;;;2.85;92.36;101693.81;4954178;28;20047;-49
2020/12/26 10:10:55;;;;;;;9.90;4.40;;;;;;;2.74;92.50;101682.13;4952901;29;20275;-52
2020/12/26 10:13:22;;;;;;;17.77;4.07;;;;;;;2.77;91.85;101680.25;4953894;28;20050;-49
2020/12/26 10:15:50;;;;;;;11.63;4.40;;;;;;;2.90;92.12;101665.38;4951996;28;20051;-52
2020/12/26 10:18:17;;;;;;;11.23;4.90;;;;;;;2.69;92.08;101672.78;4950345;28;20051;-50
2020/12/26 10:20:43;;;;;;;10.23;4.53;;;;;;;2.77;92.17;101654.72;4954743;29;20044;-49
2020/12/26 10:23:11;;;;;;;9.73;4.60;;;;;;;2.84;92.56;101657.84;4953921;29;20047;-51
2020/12/26 10:25:48;;;;;;;7.60;4.07;;;;;;;2.98;92.16;101646.44;4951997;28;20146;-52
2020/12/26 10:28:14;;;;;;;9.05;5.18;;;;;;;3.19;91.23;101649.56;4951274;28;20047;-51
2020/12/26 10:30:41;;;;;;;8.38;5.03;;;;;;;3.16;91.25;101645.34;4953117;29;20039;-51
2020/12/26 10:33:08;;;;;;;9.77;4.68;;;;;;;3.17;91.81;101646.19;4951389;29;20062;-53
2020/12/26 10:35:35;;;;;;;8.35;4.75;;;;;;;3.27;91.38;101642.00;4952969;29;20074;-52
2020/12/26 10:38:02;;;;;;;13.95;4.97;;;;;;;3.37;91.40;101639.66;4951995;29;20047;-53
2020/12/26 10:40:30;;;;;;;8.85;3.92;;;;;;;3.37;91.18;101637.84;4949544;29;20051;-53
2020/12/26 10:42:56;;;;;;;13.55;5.18;;;;;;;3.44;91.29;101633.03;4951153;28;20039;-53
2020/12/26 10:45:23;;;;;;;8.10;4.13;;;;;;;3.49;90.60;101633.59;4953390;29;20051;-53
2020/12/26 10:47:51;;;;;;;9.32;5.00;;;;;;;3.74;90.41;101629.38;4949536;28;20046;-51
2020/12/26 10:50:18;;;;;;;7.97;4.63;;;;;;;3.52;89.63;101635.22;4951493;28;20067;-51
2020/12/26 10:52:45;;;;;;;6.68;3.33;;;;;;;3.65;90.13;101633.47;4953783;28;20047;-52
2020/12/26 10:55:13;;;;;;;8.88;4.53;;;;;;;3.69;89.79;101632.34;4952853;29;20462;-48
2020/12/26 10:57:42;;;;;;;11.75;4.32;;;;;;;3.73;89.96;101627.72;4953199;29;20043;-52
2020/12/26 11:00:09;;;;;;;8.35;3.72;;;;;;;3.81;89.60;101622.75;4947536;28;20133;-50
2020/12/26 11:02:36;;;;;;;9.05;4.22;;;;;;;4.08;88.85;101616.63;4951677;29;20048;-53
2020/12/26 11:05:04;;;;;;;7.22;3.63;;;;;;;3.96;87.58;101607.72;4952102;28;20040;-49
2020/12/26 11:07:32;;;;;;;8.68;4.00;;;;;;;4.03;87.09;101616.09;4951424;28;20046;-53
2020/12/26 11:09:59;;;;;;;10.15;3.80;;;;;;;3.83;88.29;101614.72;4953696;28;20051;-50
2020/12/26 11:12:27;;;;;;;7.20;4.13;;;;;;;3.65;88.52;101604.41;4948829;28;20044;-51
2020/12/26 11:14:54;;;;;;;8.15;3.70;;;;;;;3.68;90.26;101606.00;4949680;29;20065;-52
2020/12/26 11:17:21;;;;;;;7.25;3.88;;;;;;;3.71;89.52;101596.06;4952441;29;20280;-53
2020/12/26 11:19:48;;;;;;;12.35;3.72;;;;;;;3.92;89.24;101590.34;4948640;28;20109;-50
2020/12/26 11:22:15;;;;;;;7.22;4.15;;;;;;;3.81;90.08;101585.75;4951490;29;20458;-51
2020/12/26 11:24:45;;;;;;;9.88;3.63;;;;;;;3.87;89.46;101588.03;4952589;29;20114;-50
2020/12/26 11:27:12;;;;;;;9.68;5.35;;;;;;;4.00;89.76;101573.97;4952603;29;21349;-51
2020/12/26 11:29:39;;;;;;;8.30;4.32;;;;;;;4.00;89.97;101572.19;4947807;28;20047;-50
2020/12/26 11:32:06;;;;;;;8.02;4.07;;;;;;;3.98;89.56;101566.16;4952445;29;20058;-51